Upstream stations:
Downstream station:
SHEF ID: WANO2 Cimarron River near Waynoka, OK
STATION TYPE:
Regulating: Stage = 9.00, Flow = 4005
PRECIP STAGE RIV-FLOW BAT-LOAD
in ft cfs volt
Ccp-Rev Ccp-Rev Ccp-Rev Ccp-Rev
(US/Central)
01/14 00:00 0.00 5.62 31 12.73
01/14 01:00 0.00 5.62 31 12.73
01/14 02:00 0.00 5.61 29 12.65
01/14 03:00 0.00 5.61 29 12.65
01/14 04:00 0.00 5.61 29 12.65
01/14 05:00 0.00 5.62 31 12.65
01/14 06:00 0.00 5.62 31 12.65
01/14 07:00 0.00 5.62 31 12.57
01/14 08:00 0.00 5.62 31 12.57
01/14 09:00 0.00 5.59 27 12.57
01/14 10:00 0.00 5.59 27 12.89
01/14 11:00 0.00 5.59 27 13.37
01/14 12:00 0.00 5.59 27 13.37
01/14 13:00 0.00 5.62 31 13.68
01/14 14:00 0.00 5.62 31 13.76
01/14 15:00 0.00 5.60 28 13.68
01/14 16:00 0.00 5.60 28 13.53
01/14 17:00 0.00 5.57 22 13.53
01/14 18:00 0.00 5.57 22 13.29
01/14 19:00 0.00 5.57 22 12.97
01/14 20:00 0.00 5.64 34 12.81
01/14 21:00 0.00 5.65 36 12.81
01/14 22:00 0.00 5.60 28 12.73
01/14 23:00 0.00 5.58 24 12.73